createdAt,value
2022-12-16T00:00:32.026Z,23.10
2022-12-16T00:01:37.551Z,23.42
2022-12-16T00:02:42.210Z,25.75
2022-12-16T00:03:48.948Z,22.13
2022-12-16T00:04:53.562Z,23.95
2022-12-16T00:05:55.563Z,24.15
2022-12-16T00:07:06.167Z,25.10
2022-12-16T00:08:08.124Z,24.98
2022-12-16T00:09:12.840Z,26.15
2022-12-16T00:10:15.524Z,26.08
2022-12-16T00:11:20.356Z,24.23
2022-12-16T00:12:22.874Z,23.70
2022-12-16T00:13:27.869Z,24.77
2022-12-16T00:14:30.137Z,24.45
2022-12-16T00:15:36.771Z,24.55
2022-12-16T00:16:39.848Z,25.42
2022-12-16T00:17:44.454Z,24.92
2022-12-16T00:18:47.173Z,26.35
2022-12-16T00:19:51.978Z,23.75
2022-12-16T00:20:57.363Z,24.40
2022-12-16T00:22:05.063Z,26.30
2022-12-16T00:23:07.175Z,24.17
2022-12-16T00:24:11.763Z,25.27
2022-12-16T00:25:13.708Z,25.20
2022-12-16T00:26:18.683Z,24.40
2022-12-16T00:27:20.661Z,25.67
2022-12-16T00:28:26.732Z,25.42
2022-12-16T00:29:28.713Z,24.67
2022-12-16T00:30:33.534Z,25.00
2022-12-16T00:31:38.244Z,24.88
2022-12-16T00:32:43.513Z,24.30
2022-12-16T00:33:46.001Z,23.75
2022-12-16T00:34:50.657Z,24.02
2022-12-16T00:35:55.016Z,23.23
2022-12-16T00:36:59.846Z,23.58
2022-12-16T00:38:05.103Z,24.75
2022-12-16T00:39:09.723Z,26.20
2022-12-16T00:40:12.477Z,22.95
2022-12-16T00:41:17.268Z,24.55
2022-12-16T00:42:19.239Z,24.50
2022-12-16T00:43:26.956Z,24.25
2022-12-16T00:44:31.280Z,25.60
2022-12-16T00:45:36.306Z,23.67
2022-12-16T00:46:41.199Z,25.77
2022-12-16T00:47:44.030Z,23.08
2022-12-16T00:48:48.739Z,25.02
2022-12-16T00:49:50.976Z,23.75
2022-12-16T00:50:57.799Z,23.55
2022-12-16T00:51:59.948Z,22.98
2022-12-16T00:53:08.289Z,23.80
2022-12-16T00:54:10.477Z,24.55
2022-12-16T00:55:15.211Z,25.42
2022-12-16T00:56:18.921Z,24.20
2022-12-16T00:57:23.488Z,25.33
2022-12-16T00:58:25.434Z,24.60
2022-12-16T00:59:31.074Z,24.33
2022-12-16T01:00:34.275Z,25.15
2022-12-16T01:01:39.206Z,23.80
2022-12-16T01:02:41.538Z,25.33
2022-12-16T01:03:46.605Z,25.52
2022-12-16T01:04:48.951Z,23.65
2022-12-16T01:05:53.638Z,24.58
2022-12-16T01:06:56.247Z,24.75
2022-12-16T01:08:03.127Z,24.05
2022-12-16T01:09:10.603Z,24.25
2022-12-16T01:10:12.710Z,25.75
2022-12-16T01:11:19.246Z,24.67
2022-12-16T01:12:21.266Z,24.48
2022-12-16T01:13:27.535Z,24.88
2022-12-16T01:14:29.542Z,24.52
2022-12-16T01:15:34.272Z,24.35
2022-12-16T01:16:37.028Z,24.52
2022-12-16T01:17:43.392Z,24.25
2022-12-16T01:18:48.049Z,22.90
2022-12-16T01:19:58.642Z,22.30
2022-12-16T01:21:06.687Z,21.77
2022-12-16T01:22:09.624Z,23.45
2022-12-16T01:23:15.755Z,22.15
2022-12-16T01:24:23.021Z,21.67
2022-12-16T01:25:28.846Z,21.98
2022-12-16T01:26:32.742Z,21.63
2022-12-16T01:27:37.496Z,23.20
2022-12-16T01:28:41.474Z,22.60
2022-12-16T01:29:46.738Z,22.90
2022-12-16T01:30:49.869Z,22.25
2022-12-16T01:31:54.695Z,22.70
2022-12-16T01:32:59.496Z,23.20
2022-12-16T01:34:04.635Z,23.33
2022-12-16T01:35:18.106Z,21.95
2022-12-16T01:36:29.928Z,21.65
2022-12-16T01:37:31.954Z,23.52
2022-12-16T01:38:38.927Z,22.38
2022-12-16T01:39:43.674Z,24.42
2022-12-16T01:40:48.393Z,22.00
2022-12-16T01:41:53.275Z,21.83
2022-12-16T01:42:55.252Z,22.92
2022-12-16T01:44:17.139Z,23.25
2022-12-16T01:46:38.938Z,21.70
2022-12-16T01:47:41.163Z,24.55
2022-12-16T01:48:52.229Z,21.25
2022-12-16T01:49:58.678Z,23.30
2022-12-16T01:51:13.863Z,21.58
2022-12-16T01:52:23.306Z,22.15
2022-12-16T01:53:28.003Z,21.73
2022-12-16T01:54:35.319Z,22.05
2022-12-16T01:55:47.680Z,24.05
2022-12-16T01:56:58.967Z,20.98
2022-12-16T01:58:07.772Z,22.42
2022-12-16T01:59:18.377Z,23.83
2022-12-16T02:00:20.626Z,22.10
2022-12-16T02:01:28.238Z,23.02
2022-12-16T02:02:30.471Z,23.17
2022-12-16T02:03:38.625Z,21.63
2022-12-16T02:05:01.860Z,23.10
2022-12-16T02:06:08.710Z,23.25
2022-12-16T02:07:10.654Z,23.58
2022-12-16T02:08:17.862Z,24.13
2022-12-16T02:09:20.965Z,23.27
2022-12-16T02:10:33.318Z,22.67
2022-12-16T02:12:02.184Z,22.23
2022-12-16T02:13:13.421Z,23.80
2022-12-16T02:14:41.567Z,24.42
2022-12-16T02:15:49.997Z,23.10
2022-12-16T02:17:01.034Z,24.20
2022-12-16T02:18:14.870Z,23.83
2022-12-16T02:19:37.507Z,24.95
2022-12-16T02:21:18.612Z,23.27
2022-12-16T02:22:41.645Z,22.60
2022-12-16T02:24:03.882Z,22.25
2022-12-16T02:25:37.991Z,24.25
2022-12-16T02:27:12.730Z,21.88
2022-12-16T02:28:33.430Z,21.15
2022-12-16T02:30:13.702Z,22.75
2022-12-16T02:31:32.115Z,21.92
2022-12-16T02:32:49.062Z,24.23
2022-12-16T02:34:05.266Z,22.48
2022-12-16T02:35:13.155Z,22.52
2022-12-16T02:36:27.344Z,23.20
2022-12-16T02:37:38.839Z,23.15
2022-12-16T02:38:57.651Z,23.67
2022-12-16T02:40:03.214Z,25.20
2022-12-16T02:41:14.744Z,24.92
2022-12-16T02:43:41.198Z,24.00
2022-12-16T02:44:56.209Z,24.40
2022-12-16T02:45:59.121Z,26.63
2022-12-16T02:47:06.886Z,26.00
2022-12-16T02:48:08.866Z,27.63
2022-12-16T02:49:43.594Z,25.20
2022-12-16T02:50:49.476Z,25.08
2022-12-16T02:51:55.135Z,26.73
2022-12-16T02:52:58.742Z,27.23
2022-12-16T02:54:04.976Z,26.98
2022-12-16T02:55:12.554Z,27.45
2022-12-16T02:56:25.798Z,27.33
2022-12-16T02:57:56.470Z,27.65
2022-12-16T02:59:11.711Z,28.08
2022-12-16T03:00:21.500Z,28.75
2022-12-16T03:01:36.109Z,27.10
2022-12-16T03:02:51.222Z,27.52
2022-12-16T03:04:05.010Z,29.20
2022-12-16T03:05:14.284Z,27.25
2022-12-16T03:06:22.945Z,28.23
2022-12-16T03:07:27.500Z,27.52
2022-12-16T03:08:37.059Z,27.42
2022-12-16T03:09:41.339Z,28.35
2022-12-16T03:10:49.412Z,26.58
2022-12-16T03:11:52.966Z,26.70
2022-12-16T03:12:59.522Z,27.52
2022-12-16T03:14:03.507Z,29.25
2022-12-16T03:15:10.979Z,26.77
2022-12-16T03:16:19.311Z,27.98
2022-12-16T03:17:24.545Z,26.75
2022-12-16T03:18:32.530Z,27.52
2022-12-16T03:19:36.225Z,29.20
2022-12-16T03:20:46.708Z,27.00
2022-12-16T03:21:55.041Z,28.63
2022-12-16T03:23:05.203Z,29.63
2022-12-16T03:24:13.988Z,28.52
2022-12-16T03:25:16.553Z,28.02
2022-12-16T03:26:26.082Z,28.45
2022-12-16T03:27:36.025Z,27.00
2022-12-16T03:28:47.562Z,29.08
2022-12-16T03:31:04.934Z,28.55
2022-12-16T03:32:17.101Z,28.55
2022-12-16T03:33:25.028Z,27.98
2022-12-16T03:34:37.967Z,27.83
2022-12-16T03:35:45.705Z,29.00
2022-12-16T03:36:54.620Z,27.55
2022-12-16T03:37:59.151Z,29.08
2022-12-16T03:39:05.950Z,27.58
2022-12-16T03:40:10.895Z,28.33
2022-12-16T03:41:17.763Z,29.02
2022-12-16T03:42:19.733Z,28.42
2022-12-16T03:43:24.941Z,28.52
2022-12-16T03:44:27.122Z,29.27
2022-12-16T03:45:39.514Z,30.15
2022-12-16T03:46:41.803Z,29.08
2022-12-16T03:47:52.437Z,27.63
2022-12-16T03:48:54.439Z,30.50
2022-12-16T03:50:02.105Z,31.33
2022-12-16T03:51:04.541Z,29.23
2022-12-16T03:52:10.053Z,30.58
2022-12-16T03:53:12.190Z,31.15
2022-12-16T03:54:19.129Z,29.40
2022-12-16T03:55:21.176Z,30.33
2022-12-16T03:56:27.760Z,30.45
2022-12-16T03:57:29.808Z,30.45
2022-12-16T03:58:35.545Z,31.10
2022-12-16T03:59:37.866Z,28.75
2022-12-16T04:00:42.873Z,29.73
2022-12-16T04:01:44.977Z,28.38
2022-12-16T04:02:50.257Z,28.67
2022-12-16T04:03:52.512Z,29.05
2022-12-16T04:04:57.351Z,28.25
2022-12-16T04:06:02.262Z,29.15
2022-12-16T04:07:19.391Z,30.17
2022-12-16T04:08:23.950Z,29.58
2022-12-16T04:09:25.923Z,30.13
2022-12-16T04:10:42.856Z,30.35
2022-12-16T04:12:05.442Z,29.48
2022-12-16T04:13:23.662Z,29.70
2022-12-16T04:14:40.679Z,29.10
2022-12-16T04:15:57.959Z,29.65
2022-12-16T04:17:15.168Z,30.27
2022-12-16T04:18:34.305Z,28.27
2022-12-16T04:20:08.278Z,31.17
2022-12-16T04:21:28.284Z,27.90
2022-12-16T04:22:49.189Z,26.63
2022-12-16T04:24:10.715Z,28.73
2022-12-16T04:25:18.354Z,30.30
2022-12-16T04:26:20.757Z,29.63
2022-12-16T04:27:27.768Z,29.25
2022-12-16T04:28:33.002Z,30.85
2022-12-16T04:29:55.264Z,28.83
2022-12-16T04:31:01.963Z,29.40
2022-12-16T04:32:04.604Z,28.95
2022-12-16T04:33:24.338Z,30.30
2022-12-16T04:34:29.474Z,30.13
2022-12-16T04:35:46.748Z,28.40
2022-12-16T04:37:06.642Z,30.27
2022-12-16T04:38:23.686Z,30.67
2022-12-16T04:39:40.743Z,28.02
2022-12-16T04:40:57.814Z,30.63
2022-12-16T04:42:14.917Z,30.98
2022-12-16T04:43:33.824Z,30.40
2022-12-16T04:44:51.203Z,29.67
2022-12-16T04:46:08.322Z,28.35
2022-12-16T04:47:25.707Z,29.35
2022-12-16T04:48:42.898Z,27.40
2022-12-16T04:49:59.990Z,25.65
2022-12-16T04:51:17.077Z,27.55
2022-12-16T04:52:36.979Z,28.35
2022-12-16T04:53:54.190Z,27.23
2022-12-16T04:55:11.224Z,28.60
2022-12-16T04:56:28.302Z,28.83
2022-12-16T04:57:45.424Z,32.10
2022-12-16T04:59:02.468Z,28.35
2022-12-16T05:00:21.308Z,28.92
2022-12-16T05:01:38.424Z,26.73
2022-12-16T05:02:55.779Z,26.85
2022-12-16T05:04:12.900Z,29.73
2022-12-16T05:05:31.322Z,30.38
2022-12-16T05:06:48.970Z,27.75
2022-12-16T05:08:08.765Z,28.52
2022-12-16T05:09:25.850Z,29.30
2022-12-16T05:10:42.914Z,29.92
2022-12-16T05:12:00.107Z,27.88
2022-12-16T05:13:17.123Z,25.40
2022-12-16T05:14:34.372Z,26.83
2022-12-16T05:15:51.459Z,27.65
2022-12-16T05:17:08.556Z,29.27
2022-12-16T05:18:26.416Z,27.20
2022-12-16T05:19:43.470Z,28.30
2022-12-16T05:21:00.543Z,27.30
2022-12-16T05:22:17.572Z,27.77
2022-12-16T05:23:37.546Z,27.70
2022-12-16T05:25:00.708Z,25.63
2022-12-16T05:26:17.765Z,27.00
2022-12-16T05:27:34.826Z,26.65
2022-12-16T05:28:52.066Z,27.42
2022-12-16T05:30:09.103Z,28.05
2022-12-16T05:31:37.701Z,26.10
2022-12-16T05:32:54.726Z,26.20
2022-12-16T05:34:12.752Z,25.95
2022-12-16T05:35:29.947Z,28.20
2022-12-16T05:36:47.014Z,27.65
2022-12-16T05:38:04.034Z,25.02
2022-12-16T05:39:23.917Z,24.60
2022-12-16T05:40:40.972Z,26.42
2022-12-16T05:41:58.134Z,25.77
2022-12-16T05:43:17.812Z,26.75
2022-12-16T05:44:35.060Z,29.05
2022-12-16T05:45:52.267Z,27.52
2022-12-16T05:47:09.623Z,25.92
2022-12-16T05:48:26.870Z,25.13
2022-12-16T05:49:43.995Z,23.88
2022-12-16T05:51:01.173Z,25.13
2022-12-16T05:52:20.352Z,27.20
2022-12-16T05:53:37.683Z,25.08
2022-12-16T05:54:57.637Z,25.70
2022-12-16T05:56:14.682Z,25.73
2022-12-16T05:57:31.761Z,24.15
2022-12-16T05:58:48.843Z,26.02
2022-12-16T06:01:37.505Z,26.45
2022-12-16T06:02:55.088Z,26.92
2022-12-16T06:04:17.273Z,25.45
2022-12-16T06:05:34.836Z,26.15
2022-12-16T06:06:53.488Z,23.90
2022-12-16T06:08:11.958Z,25.25
2022-12-16T06:09:29.031Z,25.00
2022-12-16T06:10:48.885Z,26.45
2022-12-16T06:12:07.885Z,26.23
2022-12-16T06:13:26.843Z,26.33
2022-12-16T06:14:43.907Z,25.73
2022-12-16T06:16:06.757Z,25.50
2022-12-16T06:17:25.989Z,25.23
2022-12-16T06:18:43.096Z,25.00
2022-12-16T06:20:00.103Z,26.05
2022-12-16T06:21:19.024Z,26.50
2022-12-16T06:22:36.265Z,28.60
2022-12-16T06:23:53.296Z,24.63
2022-12-16T06:25:10.355Z,27.40
2022-12-16T06:26:30.365Z,26.30
2022-12-16T06:27:47.649Z,28.33
2022-12-16T06:29:04.775Z,28.85
2022-12-16T06:30:23.419Z,28.05
2022-12-16T06:31:46.703Z,25.95
2022-12-16T06:33:03.869Z,28.60
2022-12-16T06:34:21.217Z,28.15
2022-12-16T06:35:38.334Z,30.17
2022-12-16T06:36:57.023Z,29.58
2022-12-16T06:38:14.091Z,30.85
2022-12-16T06:39:31.127Z,31.73
2022-12-16T06:40:48.216Z,32.45
2022-12-16T06:42:08.362Z,29.45
2022-12-16T06:43:25.703Z,30.77
2022-12-16T06:44:57.635Z,30.85
2022-12-16T06:46:14.730Z,36.88
2022-12-16T06:47:31.957Z,31.75
2022-12-16T06:48:49.298Z,33.38
2022-12-16T06:50:06.654Z,34.75
2022-12-16T06:51:23.730Z,35.55
2022-12-16T06:52:41.034Z,33.25
2022-12-16T06:53:58.136Z,28.67
2022-12-16T06:55:15.248Z,29.23
2022-12-16T06:56:32.347Z,28.77
2022-12-16T06:57:52.065Z,27.95
2022-12-16T06:59:09.374Z,26.08
2022-12-16T07:00:27.711Z,26.40
2022-12-16T07:01:45.303Z,26.83
2022-12-16T07:03:02.584Z,23.10
2022-12-16T07:04:19.718Z,24.58
2022-12-16T07:05:36.789Z,25.92
2022-12-16T07:06:53.876Z,23.60
2022-12-16T07:08:11.703Z,23.40
2022-12-16T07:09:28.707Z,25.35
2022-12-16T07:10:45.783Z,24.80
2022-12-16T07:12:03.199Z,26.10
2022-12-16T07:13:22.998Z,26.10
2022-12-16T07:14:40.295Z,25.73
2022-12-16T07:15:58.501Z,23.50
2022-12-16T07:17:17.441Z,27.35
2022-12-16T07:18:49.447Z,22.65
2022-12-16T07:20:08.598Z,24.33
2022-12-16T07:21:26.844Z,24.48
2022-12-16T07:22:44.271Z,23.30
2022-12-16T07:24:01.409Z,23.95
2022-12-16T07:25:19.010Z,23.50
2022-12-16T07:26:36.215Z,22.95
2022-12-16T07:27:53.280Z,23.40
2022-12-16T07:29:14.590Z,22.30
2022-12-16T07:30:31.783Z,21.33
2022-12-16T07:31:49.099Z,20.35
2022-12-16T07:33:06.314Z,21.48
2022-12-16T07:34:24.043Z,22.63
2022-12-16T07:35:41.546Z,21.35
2022-12-16T07:37:07.291Z,20.92
2022-12-16T07:38:24.350Z,20.10
2022-12-16T07:39:41.616Z,21.75
2022-12-16T07:40:59.805Z,20.52
2022-12-16T07:42:17.057Z,20.85
2022-12-16T07:43:34.824Z,22.38
2022-12-16T07:44:55.045Z,21.13
2022-12-16T07:46:12.194Z,24.15
2022-12-16T07:47:29.276Z,20.75
2022-12-16T07:48:46.306Z,19.13
2022-12-16T07:50:03.709Z,20.40
2022-12-16T07:51:22.337Z,21.25
2022-12-16T07:52:39.625Z,20.38
2022-12-16T07:53:57.282Z,19.95
2022-12-16T07:55:14.354Z,18.67
2022-12-16T07:56:31.718Z,20.45
2022-12-16T07:57:48.820Z,18.40
2022-12-16T07:59:05.899Z,18.00
2022-12-16T08:00:27.734Z,19.88
2022-12-16T08:01:47.417Z,20.30
2022-12-16T08:03:08.580Z,18.45
2022-12-16T08:04:25.839Z,14.98
2022-12-16T08:05:43.298Z,16.98
2022-12-16T08:07:00.451Z,16.27
2022-12-16T08:08:18.553Z,17.40
2022-12-16T08:09:35.841Z,17.17
2022-12-16T08:10:53.121Z,16.90
2022-12-16T08:12:14.828Z,16.90
2022-12-16T08:13:31.926Z,16.35
2022-12-16T08:14:49.154Z,17.88
2022-12-16T08:16:09.167Z,15.88
2022-12-16T08:17:26.411Z,16.73
2022-12-16T08:18:43.718Z,14.85
2022-12-16T08:20:00.845Z,16.05
2022-12-16T08:21:18.025Z,15.13
2022-12-16T08:22:35.211Z,15.27
2022-12-16T08:23:56.505Z,15.15
2022-12-16T08:25:14.280Z,14.38
2022-12-16T08:26:31.454Z,15.77
2022-12-16T08:27:48.606Z,13.45
2022-12-16T08:29:27.218Z,13.45
2022-12-16T08:30:43.334Z,14.93
2022-12-16T08:32:05.652Z,15.68
2022-12-16T08:33:23.923Z,13.65
2022-12-16T08:34:41.597Z,15.23
2022-12-16T08:35:59.096Z,12.88
2022-12-16T08:37:17.858Z,12.35
2022-12-16T08:38:34.932Z,14.73
2022-12-16T08:40:17.617Z,13.48
2022-12-16T08:41:29.563Z,13.98
2022-12-16T08:42:46.776Z,13.90
2022-12-16T08:44:04.057Z,13.98
2022-12-16T08:45:22.377Z,15.30
2022-12-16T08:46:39.642Z,13.93
2022-12-16T08:48:08.560Z,14.18
2022-12-16T08:49:25.709Z,14.15
2022-12-16T08:50:44.070Z,14.43
2022-12-16T08:52:03.288Z,13.45
2022-12-16T08:53:26.452Z,17.13
2022-12-16T08:54:43.499Z,14.40
2022-12-16T08:56:00.702Z,12.75
2022-12-16T08:57:18.290Z,12.68
2022-12-16T09:00:08.534Z,13.30
2022-12-16T09:01:26.219Z,17.58
2022-12-16T09:02:43.746Z,19.23
2022-12-16T09:04:05.807Z,17.73
2022-12-16T09:06:41.088Z,15.65
2022-12-16T09:07:58.324Z,14.23
2022-12-16T09:09:15.344Z,11.98
2022-12-16T09:10:39.236Z,15.23
2022-12-16T09:11:57.451Z,20.02
2022-12-16T09:13:21.237Z,13.95
2022-12-16T09:14:38.702Z,16.02
2022-12-16T09:15:55.851Z,22.38
2022-12-16T09:17:13.763Z,17.95
2022-12-16T09:18:39.368Z,15.65
2022-12-16T09:19:59.072Z,14.05
2022-12-16T09:21:17.025Z,13.30
2022-12-16T09:22:34.158Z,13.40
2022-12-16T09:23:51.270Z,16.08
2022-12-16T09:25:08.378Z,15.77
2022-12-16T09:26:25.868Z,13.05
2022-12-16T09:27:43.000Z,15.00
2022-12-16T09:29:00.065Z,14.63
2022-12-16T09:30:19.557Z,17.13
2022-12-16T09:31:39.132Z,15.27
2022-12-16T09:32:57.270Z,12.82
2022-12-16T09:34:14.356Z,18.98
2022-12-16T09:35:34.413Z,13.15
2022-12-16T09:36:51.665Z,17.90
2022-12-16T09:38:09.798Z,15.43
2022-12-16T09:39:28.100Z,12.35
2022-12-16T09:41:07.911Z,12.95
2022-12-16T09:42:38.656Z,11.15
2022-12-16T09:44:23.445Z,11.68
2022-12-16T09:45:51.585Z,12.52
2022-12-16T09:47:19.388Z,11.48
2022-12-16T09:48:44.163Z,11.82
2022-12-16T09:50:05.798Z,12.82
2022-12-16T09:51:28.340Z,15.15
2022-12-16T09:52:52.591Z,12.85
2022-12-16T09:54:11.694Z,11.38
2022-12-16T09:55:42.574Z,11.95
2022-12-16T09:57:01.057Z,12.02
2022-12-16T09:58:24.521Z,11.25
2022-12-16T09:59:46.035Z,12.55
2022-12-16T10:01:03.373Z,11.32
2022-12-16T10:02:29.518Z,11.40
2022-12-16T10:03:53.559Z,11.07
2022-12-16T10:05:12.976Z,11.25
2022-12-16T10:06:59.859Z,12.43
2022-12-16T10:08:24.035Z,10.23
2022-12-16T10:09:45.443Z,10.27
2022-12-16T10:11:07.099Z,9.85
2022-12-16T10:12:29.817Z,11.18
2022-12-16T10:15:49.677Z,10.68
2022-12-16T10:17:15.415Z,14.73
2022-12-16T10:18:46.406Z,11.75
2022-12-16T10:20:09.910Z,10.85
2022-12-16T10:21:35.045Z,10.88
2022-12-16T10:23:03.295Z,12.52
2022-12-16T10:24:38.208Z,11.70
2022-12-16T10:26:01.292Z,13.85
2022-12-16T10:27:26.187Z,12.52
2022-12-16T10:30:30.481Z,10.05
2022-12-16T10:31:49.004Z,10.00
2022-12-16T10:33:08.567Z,10.45
2022-12-16T10:34:29.078Z,11.27
2022-12-16T10:35:51.030Z,11.43
2022-12-16T10:37:11.756Z,12.07
2022-12-16T10:38:37.719Z,12.60
2022-12-16T10:39:58.258Z,18.20
2022-12-16T10:41:16.963Z,15.70
2022-12-16T10:42:37.939Z,12.35
2022-12-16T10:43:59.920Z,13.38
2022-12-16T10:46:40.275Z,13.90
2022-12-16T10:49:14.736Z,12.13
2022-12-16T10:50:32.495Z,10.15
2022-12-16T10:51:49.678Z,12.43
2022-12-16T10:53:12.689Z,11.40
2022-12-16T10:54:54.135Z,11.27
2022-12-16T10:56:23.899Z,10.88
2022-12-16T10:57:50.691Z,11.75
2022-12-16T10:59:11.129Z,11.98
2022-12-16T11:00:33.571Z,10.30
2022-12-16T11:01:50.899Z,16.92
2022-12-16T11:03:11.774Z,26.58
2022-12-16T11:04:49.168Z,19.30
2022-12-16T11:06:06.564Z,18.02
2022-12-16T11:07:39.114Z,12.15
2022-12-16T11:08:56.278Z,14.27
2022-12-16T11:10:21.343Z,11.60
2022-12-16T11:11:43.465Z,13.52
2022-12-16T11:13:09.404Z,11.45
2022-12-16T11:14:37.068Z,10.55
2022-12-16T11:15:54.345Z,14.35
2022-12-16T11:17:37.530Z,12.25
2022-12-16T11:19:06.255Z,12.73
2022-12-16T11:20:30.034Z,12.45
2022-12-16T11:22:02.256Z,12.75
2022-12-16T11:24:45.926Z,12.38
2022-12-16T11:26:19.305Z,12.63
2022-12-16T11:27:41.170Z,12.60
2022-12-16T11:28:58.218Z,14.27
2022-12-16T11:30:18.601Z,15.68
2022-12-16T11:31:36.107Z,13.55
2022-12-16T11:33:02.170Z,15.48
2022-12-16T11:34:19.993Z,13.70
2022-12-16T11:35:41.836Z,12.40
2022-12-16T11:37:01.060Z,13.38
2022-12-16T11:38:24.371Z,14.68
2022-12-16T11:39:44.634Z,12.30
2022-12-16T11:41:02.339Z,13.82
2022-12-16T11:42:27.343Z,14.00
2022-12-16T12:13:05.492Z,13.20
2022-12-16T12:14:33.436Z,12.68
2022-12-16T12:15:57.630Z,13.88
2022-12-16T12:17:27.417Z,11.93
2022-12-16T12:18:55.951Z,13.50
2022-12-16T12:20:26.416Z,13.95
2022-12-16T12:21:57.757Z,13.20
2022-12-16T12:23:22.434Z,17.30
2022-12-16T12:24:51.342Z,14.15
2022-12-16T12:26:21.861Z,20.08
2022-12-16T12:29:31.873Z,16.65
2022-12-16T12:30:57.643Z,12.70
2022-12-16T12:32:39.058Z,10.20
2022-12-16T12:34:17.655Z,20.52
2022-12-16T12:36:02.467Z,20.30
2022-12-16T12:37:25.680Z,11.30
2022-12-16T12:38:50.931Z,17.80
2022-12-16T12:40:15.659Z,30.23
2022-12-16T12:41:38.647Z,15.43
2022-12-16T12:43:03.315Z,13.13
2022-12-16T12:44:42.337Z,12.18
2022-12-16T12:46:14.486Z,10.82
2022-12-16T12:47:36.192Z,17.42
2022-12-16T12:49:03.241Z,14.18
2022-12-16T12:50:26.150Z,10.93
2022-12-16T12:51:49.994Z,9.75
2022-12-16T12:53:22.974Z,12.25
2022-12-16T12:54:49.261Z,13.07
2022-12-16T12:56:16.006Z,12.98
2022-12-16T12:57:38.188Z,13.55
2022-12-16T12:58:57.604Z,15.45
2022-12-16T13:00:21.010Z,10.93
2022-12-16T13:01:42.513Z,14.80
2022-12-16T13:03:06.731Z,11.57
2022-12-16T13:04:28.189Z,10.98
2022-12-16T13:05:49.793Z,14.73
2022-12-16T13:07:08.734Z,12.27
2022-12-16T13:08:49.144Z,10.98
2022-12-16T13:10:49.954Z,12.77
2022-12-16T13:12:45.942Z,8.60
2022-12-16T13:14:03.967Z,11.75
2022-12-16T13:15:25.779Z,11.38
2022-12-16T13:17:19.044Z,10.20
2022-12-16T13:18:43.270Z,9.90
2022-12-16T13:20:09.063Z,9.80
2022-12-16T13:22:01.138Z,11.07
2022-12-16T13:23:43.910Z,9.13
2022-12-16T13:25:05.016Z,10.35
2022-12-16T13:26:25.424Z,10.30
2022-12-16T13:27:45.181Z,11.38
2022-12-16T13:29:23.819Z,12.40
2022-12-16T13:30:46.539Z,10.98
2022-12-16T13:32:18.427Z,10.25
2022-12-16T13:33:53.763Z,10.75
2022-12-16T13:35:15.843Z,10.55
2022-12-16T13:36:34.662Z,8.75
2022-12-16T13:37:51.838Z,11.55
2022-12-16T13:39:10.950Z,10.20
2022-12-16T13:40:34.185Z,9.52
2022-12-16T13:42:15.189Z,12.07
2022-12-16T13:44:25.886Z,14.45
2022-12-16T13:45:51.849Z,14.93
2022-12-16T13:47:10.785Z,13.02
2022-12-16T13:48:45.468Z,17.27
2022-12-16T13:50:03.901Z,20.17
2022-12-16T13:51:21.118Z,16.40
2022-12-16T13:52:43.147Z,18.85
2022-12-16T13:54:04.979Z,20.15
2022-12-16T13:55:30.460Z,20.58
2022-12-16T13:56:52.685Z,17.40
2022-12-16T13:58:17.600Z,14.43
2022-12-16T13:59:38.085Z,17.27
2022-12-16T14:00:59.179Z,15.60
2022-12-16T14:02:30.193Z,20.33
2022-12-16T14:03:57.621Z,22.38
2022-12-16T14:05:15.101Z,20.70
2022-12-16T14:06:34.904Z,20.02
2022-12-16T14:09:18.335Z,23.85
2022-12-16T14:10:41.671Z,22.75
2022-12-16T14:13:44.831Z,16.80
2022-12-16T14:15:07.734Z,16.27
2022-12-16T14:16:31.541Z,14.57
2022-12-16T14:17:55.320Z,16.05
2022-12-16T14:19:24.853Z,15.02
2022-12-16T14:22:54.772Z,15.38
2022-12-16T14:26:29.638Z,17.63
2022-12-16T14:27:56.267Z,15.05
2022-12-16T14:29:18.612Z,15.93
2022-12-16T14:30:39.414Z,15.18
2022-12-16T14:32:04.410Z,16.77
2022-12-16T14:33:38.322Z,15.68
2022-12-16T14:36:57.461Z,15.32
2022-12-16T14:38:51.113Z,17.75
2022-12-16T14:40:11.689Z,15.75
2022-12-16T14:41:32.916Z,17.90
2022-12-16T14:44:44.484Z,18.97
2022-12-16T14:46:17.128Z,18.80
2022-12-16T14:47:42.803Z,16.10
2022-12-16T14:49:11.047Z,16.90
2022-12-16T14:50:35.858Z,20.55
2022-12-16T14:55:55.100Z,39.78
2022-12-16T14:57:14.295Z,44.72
2022-12-16T14:58:32.723Z,30.08
2022-12-16T14:59:49.714Z,32.67
2022-12-16T15:01:13.790Z,27.42
2022-12-16T15:02:45.882Z,24.77
2022-12-16T15:04:05.139Z,43.13
2022-12-16T15:05:22.670Z,23.98
2022-12-16T15:06:42.480Z,32.95
2022-12-16T15:07:59.534Z,37.63
2022-12-16T15:09:20.367Z,27.92
2022-12-16T15:10:41.152Z,32.80
2022-12-16T15:11:59.847Z,32.50
2022-12-16T15:13:17.252Z,58.58
2022-12-16T15:14:41.349Z,47.80
2022-12-16T15:16:02.104Z,31.75
2022-12-16T15:17:19.565Z,30.55
2022-12-16T15:18:45.239Z,25.67
2022-12-16T15:20:05.188Z,33.97
2022-12-16T15:21:29.147Z,56.97
2022-12-16T15:22:46.395Z,37.63
2022-12-16T15:24:03.493Z,34.75
2022-12-16T15:25:22.100Z,29.33
2022-12-16T15:26:41.278Z,29.15
2022-12-16T15:27:58.280Z,28.67
2022-12-16T15:29:15.314Z,31.10
2022-12-16T15:30:49.582Z,33.55
2022-12-16T15:32:06.799Z,30.23
2022-12-16T15:33:33.071Z,26.65
2022-12-16T15:35:03.075Z,42.42
2022-12-16T15:36:21.950Z,30.52
2022-12-16T15:37:41.228Z,47.17
2022-12-16T15:38:58.045Z,37.33
2022-12-16T15:40:15.074Z,34.22
2022-12-16T15:41:46.371Z,36.35
2022-12-16T15:43:06.531Z,48.45
2022-12-16T15:44:32.962Z,42.70
2022-12-16T15:45:50.682Z,39.65
2022-12-16T15:47:08.002Z,32.92
2022-12-16T15:48:33.228Z,32.45
2022-12-16T15:49:53.648Z,36.20
2022-12-16T15:51:13.742Z,29.05
2022-12-16T15:52:50.137Z,26.70
2022-12-16T15:54:17.681Z,27.83
2022-12-16T15:55:40.863Z,33.38
2022-12-16T15:57:00.902Z,25.92
2022-12-16T15:58:18.390Z,25.90
2022-12-16T15:59:51.192Z,33.72
2022-12-16T16:01:13.204Z,39.00
2022-12-16T16:02:34.704Z,33.88
2022-12-16T16:03:53.389Z,35.70
2022-12-16T16:05:10.546Z,32.42
2022-12-16T16:06:37.477Z,30.40
2022-12-16T16:07:57.805Z,32.60
2022-12-16T16:09:26.935Z,33.45
2022-12-16T16:10:44.031Z,23.00
2022-12-16T16:12:01.152Z,27.25
2022-12-16T16:13:25.006Z,25.88
2022-12-16T16:14:42.125Z,26.65
2022-12-16T16:15:59.184Z,24.85
2022-12-16T16:17:16.070Z,28.77
2022-12-16T16:18:33.176Z,22.77
2022-12-16T16:19:50.528Z,29.23
2022-12-16T16:21:07.585Z,26.92
2022-12-16T16:22:31.703Z,27.20
2022-12-16T16:23:48.814Z,28.33
2022-12-16T16:25:05.807Z,25.27
2022-12-16T16:26:25.447Z,27.55
2022-12-16T16:27:43.774Z,22.67
2022-12-16T16:29:00.923Z,24.65
2022-12-16T16:30:18.221Z,25.83
2022-12-16T16:31:35.356Z,25.40
2022-12-16T16:32:52.394Z,27.60
2022-12-16T16:34:09.447Z,27.23
2022-12-16T16:35:26.502Z,24.73
2022-12-16T16:36:52.404Z,22.10
2022-12-16T16:38:20.568Z,21.17
2022-12-16T16:39:37.434Z,21.63
2022-12-16T16:40:56.402Z,26.42
2022-12-16T16:42:13.653Z,30.40
2022-12-16T16:43:31.361Z,29.77
2022-12-16T16:44:48.596Z,28.70
2022-12-16T16:46:10.096Z,28.25
2022-12-16T16:47:32.074Z,29.85
2022-12-16T16:50:06.238Z,22.23
2022-12-16T16:51:28.858Z,39.35
2022-12-16T16:52:46.289Z,21.27
2022-12-16T16:54:05.977Z,26.08
2022-12-16T16:55:30.361Z,30.17
2022-12-16T16:56:49.956Z,28.27
2022-12-16T16:58:07.632Z,42.58
2022-12-16T17:00:34.959Z,15.52
2022-12-16T17:01:52.154Z,19.52
2022-12-16T17:03:09.508Z,16.50
2022-12-16T17:04:26.805Z,21.45
2022-12-16T17:05:44.007Z,15.32
2022-12-16T17:07:01.043Z,12.48
2022-12-16T17:08:18.117Z,11.38
2022-12-16T17:09:37.735Z,11.95
2022-12-16T17:10:54.786Z,11.25
2022-12-16T17:12:11.833Z,11.80
2022-12-16T17:13:28.933Z,10.95
2022-12-16T17:14:46.100Z,11.70
2022-12-16T17:16:03.237Z,12.20
2022-12-16T17:17:21.118Z,11.52
2022-12-16T17:18:43.759Z,12.48
2022-12-16T17:20:02.919Z,12.82
2022-12-16T17:21:21.269Z,11.88
2022-12-16T17:22:40.694Z,14.75
2022-12-16T17:23:57.696Z,15.15
2022-12-16T17:25:17.316Z,13.85
2022-12-16T17:26:34.908Z,11.57
2022-12-16T17:28:02.311Z,13.98
2022-12-16T17:29:20.319Z,12.88
2022-12-16T17:30:43.323Z,13.75
2022-12-16T17:32:02.134Z,14.77
2022-12-16T17:33:20.336Z,14.88
2022-12-16T17:34:37.370Z,17.08
2022-12-16T17:35:54.367Z,18.27
2022-12-16T17:37:11.378Z,18.15
2022-12-16T17:38:34.311Z,18.58
2022-12-16T17:39:51.310Z,17.38
2022-12-16T17:41:12.775Z,19.10